LAB24 Weather Reports


Display with metric or nautical units.
time (UTC)temp
F
wind
direction
speed
MPH
gust
MPH
rain 1hr
in
rain 24hr
in
rain mn
in
humidity
%
barometer
mb
20260504033012 50 333 2.0 4.0 0.00 0.00 0.00 70 1015.7
20260504031517 50 241 1.0 4.0 0.00 0.00 0.00 71 1015.8
20260504030004 51 296 1.0 3.0 0.00 0.00 0.00 69 1015.8
20260504024505 51 261 2.0 3.0 0.00 0.00 0.00 70 1015.9
20260504023006 51 307 2.0 4.0 0.00 0.00 0.00 72 1016.0
20260504021513 51 321 1.0 4.0 0.00 0.00 0.00 74 1016.1
20260504020016 51 257 1.0 4.0 0.00 0.00 0.00 76 1016.1
20260504014510 51 352 2.0 5.0 0.00 0.00 0.00 76 1016.1
20260504013007 52 288 2.0 5.0 0.00 0.00 0.00 75 1016.0
20260504011512 52 292 2.0 5.0 0.00 0.00 0.00 76 1016.0
20260504010015 52 330 2.0 4.0 0.00 0.00 0.00 77 1016.0
20260504004523 52 238 2.0 4.0 0.00 0.00 0.00 77 1016.1
20260504003024 52 178 1.0 6.0 0.00 0.00 0.00 77 1016.1
20260504001508 52 194 2.0 4.0 0.00 0.00 0.00 76 1016.2
20260504000013 53 300 1.0 3.0 0.00 0.00 0.00 75 1016.3
20260503234522 53 309 0.0 4.0 0.00 0.00 0.00 75 1016.3
20260503233024 53 313 1.0 5.0 0.00 0.00 0.00 75 1016.5
20260503231541 53 296 1.0 4.0 0.00 0.00 0.00 76 1016.5
20260503230013 53 273 1.0 4.0 0.00 0.00 0.00 76 1016.6
20260503224516 53 303 1.0 3.0 0.00 0.00 0.00 77 1016.8
20260503223024 53 215 1.0 4.0 0.00 0.00 0.00 76 1016.9
20260503221524 53 202 1.0 3.0 0.00 0.00 0.00 76 1016.8
20260503220035 53 293 1.0 3.0 0.00 0.00 0.00 75 1016.7
20260503214514 54 261 1.0 4.0 0.00 0.00 0.00 74 1016.7
20260503213018 54 317 1.0 4.0 0.00 0.00 0.00 74 1016.6
20260503211525 55 307 1.0 3.0 0.00 0.00 0.00 72 1016.6
20260503210026 55 298 0.0 2.0 0.00 0.00 0.00 72 1016.7
20260503204541 55 290 1.0 3.0 0.00 0.00 0.00 72 1016.5
20260503203022 55 277 1.0 4.0 0.00 0.00 0.00 72 1016.6
20260503201525 55 278 0.0 4.0 0.00 0.00 0.00 72 1016.6
20260503200022 54 263 1.0 5.0 0.00 0.00 0.00 73 1016.6
20260503194529 55 286 2.0 5.0 0.00 0.00 0.00 73 1016.5
20260503193029 56 277 1.0 2.0 0.00 0.00 0.00 70 1016.5
20260503191517 57 284 0.0 2.0 0.00 0.00 0.00 69 1016.2
20260503190004 58 299 1.0 4.0 0.00 0.00 0.00 67 1016.2
20260503184509 59 288 0.0 3.0 0.00 0.00 0.00 65 1015.9
20260503183012 59 321 1.0 3.0 0.00 0.00 0.00 64 1015.8
20260503181516 62 303 0.0 2.0 0.00 0.00 0.00 61 1015.7
20260503180029 63 140 0.0 2.0 0.00 0.00 0.00 57 1015.5
20260503174510 64 131 0.0 1.0 0.00 0.00 0.00 54 1015.4
20260503173013 65 153 0.0 2.0 0.00 0.00 0.00 53 1015.2
20260503171518 66 109 1.0 2.0 0.00 0.00 0.00 51 1015.1
20260503081516 64 231 1.0 5.0 0.00 0.00 0.00 49 1017.5
20260503071511 61 43 0.0 2.0 0.00 0.00 0.00 54 1017.8
20260503054530 49 261 0.0 2.0 0.00 0.00 0.00 71 1017.5
20260503053022 48 288 0.0 2.0 0.00 0.00 0.00 71 1017.6
20260503051540 47 329 1.0 3.0 0.00 0.00 0.00 71 1017.5
20260503050029 46 292 1.0 4.0 0.00 0.00 0.00 72 1017.6
20260503044516 46 295 1.0 4.0 0.00 0.00 0.00 72 1017.6
20260503043023 46 265 0.0 2.0 0.00 0.00 0.00 73 1017.5
20260503041529 46 260 2.0 8.0 0.00 0.00 0.00 73 1017.5
20260503040027 46 257 2.0 4.0 0.00 0.00 0.00 72 1017.2
20260503034516 46 285 1.0 3.0 0.00 0.00 0.00 74 1017.3